MET'MAP v2.0
soon released !

Expected late october,
this new version will be
more efficient, smarter,
and hosted on a brand new
server x3 powerfull...
...and still free !


Not compatible ?
Try the mobile version !

LOG IN : | Subscribe | Disclaimer | Who is Orbifly ? |
ICAO code :

TAF - EKCH København - Kastrup (Copenhagen) - 27 May 2020 06:03 UTC - Data Source NOAA   


- Airport Elevation : 17 ft
- IATA code : CPH
- No reported NOTAMs.


EKCH - København - Kastrup (Copenhagen)

Latest METAR recorded : 2015/08/11 07:50 EKCH 110750Z 06008KT 040V100 9999 FEW005 BKN120 17/16 Q1016 NOSIG
TAF TAF EKCH
Valid from the 27 at 00:00 until the 28 at 00:00 UTC


262305Z 2700/2724 26004KT 9999 FEW040
BECMG 2710/2712 32014KT

Source NOAA


MET'MAP, your aeronautical weather chart ! - Copyright ORBIFLY December 2007

Programming & Development : Alexandra Zaïnal
Co-Developer : Marc-Olivier Méhu
Technical & hardware support : Manuel Goepfert
Concept & Financing : Baudouin d'Aumeries